Data for 08/08/2008

Time Sea-Level Adjusted Pressure Absolute Pressure Temperature Relative Humidity Dew Point   
(mb) (inHg) (mb) (inHg) (C) (F) (%) (C) (F)
00:05 1019 30.09 849 25.07 15.3 59.5 85 12.7 54.9
00:10 1019 30.09 849 25.07 15.2 59.3 85 12.7 54.9
00:15 1019 30.09 849 25.07 15 59.1 86 12.6 54.8
00:20 1020 30.12 849 25.07 15.1 59.1 86 12.8 55.1
00:25 1020 30.12 849 25.07 15.4 59.7 81 12.2 53.9
00:30 1020 30.12 849 25.07 15.7 60.3 80 12.4 54.3
00:35 1020 30.12 849 25.07 15.8 60.4 81 12.5 54.5
00:40 1020 30.12 849 25.07 15.8 60.4 82 12.6 54.8
00:45 1020 30.12 849 25.07 15.9 60.7 79 12.3 54.1
00:50 1020 30.12 849 25.07 16 60.8 79 12.4 54.3
00:55 1020 30.12 849 25.07 15.8 60.4 81 12.5 54.5
01:00 1020 30.12 849 25.07 15.6 60.1 81 12.3 54.2
01:05 1020 30.12 849 25.07 15.6 60.1 80 12.1 53.8
01:10 1020 30.12 849 25.07 15.8 60.4 79 12.1 53.8
01:15 1020 30.12 849 25.07 15.8 60.5 81 12.6 54.7
01:20 1020 30.12 849 25.07 15.8 60.4 81 12.5 54.4
01:25 1020 30.12 849 25.07 15.7 60.3 81 12.5 54.5
01:30 1020 30.12 849 25.07 15.7 60.2 82 12.6 54.7
01:35 1020 30.12 849 25.07 15.6 60.1 82 12.7 54.8
01:40 1020 30.12 849 25.07 15.5 59.9 83 12.7 54.9
01:45 1020 30.12 849 25.07 15.4 59.7 83 12.6 54.6
01:50 1020 30.12 849 25.07 15.1 59.2 85 12.6 54.6
01:55 1020 30.12 849 25.07 15 59 84 12.4 54.2
02:00 1020 30.12 849 25.07 14.7 58.5 85 12.2 53.9
02:05 1020 30.12 849 25.07 14.6 58.2 87 12.4 54.4
02:10 1020 30.12 849 25.07 14.3 57.8 86 12 53.6
02:15 1020 30.12 849 25.07 14.3 57.7 85 11.8 53.2
02:20 1020 30.12 849 25.07 14.3 57.7 85 11.8 53.2
02:25 1020 30.12 849 25.07 14.3 57.8 85 11.9 53.4
02:30 1020 30.12 849 25.07 14.3 57.8 85 11.8 53.2
02:35 1020 30.12 849 25.07 14.4 57.9 85 11.8 53.3
02:40 1020 30.12 849 25.07 14.3 57.7 85 11.8 53.3
02:45 1020 30.12 849 25.07 14.2 57.6 85 11.7 53.1
02:50 1020 30.12 849 25.07 14.3 57.7 85 11.9 53.3
02:55 1020 30.12 849 25.07 14.2 57.5 86 11.8 53.3
03:00 1020 30.12 849 25.07 14 57.3 86 11.8 53.2
03:05 1020 30.12 849 25.07 14 57.1 86 11.6 52.9
03:10 1020 30.12 849 25.07 14 57.3 86 11.7 53.1
03:15 1020 30.12 849 25.07 14 57.2 86 11.7 53
03:20 1020 30.12 849 25.07 14 57.3 86 11.7 53.1
03:25 1020 30.12 849 25.07 13.9 57.1 86 11.7 53.1
03:30 1020 30.12 849 25.07 13.8 56.8 87 11.7 53
03:35 1020 30.12 849 25.07 13.7 56.7 87 11.6 52.9
03:40 1020 30.12 849 25.07 13.7 56.6 86 11.4 52.6
03:45 1020 30.12 849 25.07 13.8 56.9 84 11.2 52.1
03:50 1020 30.12 849 25.07 14.3 57.7 82 11.2 52.1
03:55 1020 30.12 849 25.07 14.1 57.4 84 11.4 52.6
04:00 1020 30.12 849 25.07 13.9 56.9 84 11.2 52.1
04:05 1020 30.12 849 25.07 13.7 56.7 85 11.2 52.2
04:10 1019 30.09 849 25.07 13.7 56.6 84 11 51.8
04:15 1019 30.09 849 25.07 13.7 56.6 84 11 51.9
04:20 1019 30.09 849 25.07 13.8 56.8 82 10.7 51.3
04:25 1019 30.09 849 25.07 14.3 57.7 81 11.1 51.9
04:30 1019 30.09 849 25.07 14.4 57.9 81 11.2 52.1
04:35 1019 30.09 848 25.04 14.1 57.4 82 11.1 52
04:40 1019 30.09 848 25.04 13.8 56.9 84 11.1 52
04:45 1019 30.09 848 25.04 13.7 56.6 84 11.1 52
04:50 1019 30.09 848 25.04 13.5 56.3 85 11.1 52
04:55 1019 30.09 848 25.04 13.4 56.1 86 11.1 52
05:00 1019 30.09 848 25.04 13.5 56.4 85 11.1 51.9
05:05 1019 30.09 848 25.04 13.7 56.6 85 11.1 52
05:10 1019 30.09 848 25.04 13.6 56.6 85 11.1 52
05:15 1019 30.09 848 25.04 13.5 56.3 86 11.3 52.3
05:20 1019 30.09 848 25.04 13.4 56.1 87 11.2 52.2
05:25 1019 30.09 848 25.04 13.3 55.9 85 10.8 51.5
05:30 1019 30.09 848 25.04 13.5 56.2 83 10.7 51.3
05:35 1019 30.09 848 25.04 13.8 56.8 82 10.7 51.3
05:40 1019 30.09 848 25.04 14.1 57.3 81 10.8 51.5
05:45 1019 30.09 848 25.04 14 57.2 81 10.8 51.5
05:50 1019 30.09 848 25.04 13.9 57 83 11 51.8
05:55 1019 30.09 848 25.04 13.6 56.5 84 11 51.8
06:00 1019 30.09 848 25.04 13.4 56 86 11 51.9
06:05 1019 30.09 848 25.04 13.3 56 85 11 51.7
06:10 1019 30.09 848 25.04 13.3 55.9 85 10.9 51.6
06:15 1019 30.09 848 25.04 13.3 55.9 85 10.8 51.5
06:20 1019 30.09 848 25.04 13.5 56.2 84 10.8 51.4
06:25 1019 30.09 848 25.04 13.5 56.4 84 10.9 51.6
06:30 1019 30.09 848 25.04 13.4 56 85 10.8 51.5
06:35 1019 30.09 848 25.04 13.2 55.7 86 10.9 51.6
06:40 1019 30.09 848 25.04 13 55.5 86 10.7 51.3
06:45 1019 30.09 848 25.04 13.3 55.9 84 10.7 51.2
06:50 1019 30.09 848 25.04 13.4 56.2 85 11 51.7
06:55 1019 30.09 848 25.04 12.9 55.2 86 10.7 51.3
07:00 1019 30.09 848 25.04 13 55.4 85 10.7 51.2
07:05 1019 30.09 848 25.04 13.3 55.9 83 10.5 50.9
07:10 1019 30.09 848 25.04 13.6 56.4 82 10.6 51.1
07:15 1019 30.09 848 25.04 13.8 56.9 80 10.5 50.9
07:20 1019 30.09 848 25.04 14.1 57.3 81 10.8 51.4
07:25 1019 30.09 848 25.04 13.7 56.6 83 10.9 51.6
07:30 1019 30.09 848 25.04 13.5 56.3 83 10.7 51.2
07:35 1019 30.09 848 25.04 13.6 56.4 83 10.8 51.4
07:40 1019 30.09 848 25.04 14 57.2 80 10.6 51.2
07:45 1019 30.09 848 25.04 14.4 57.8 79 10.8 51.4
07:50 1019 30.09 848 25.04 14.6 58.3 79 11 51.8
07:55 1019 30.09 848 25.04 14.7 58.5 78 11 51.8
08:00 1019 30.09 848 25.04 15.1 59.2 77 11.2 52.1
08:05 1019 30.09 848 25.04 15.2 59.3 77 11.3 52.3
08:10 1019 30.09 848 25.04 15.5 59.9 76 11.4 52.5
08:15 1019 30.09 848 25.04 16 60.8 75 11.7 53.1
08:20 1019 30.09 848 25.04 16 60.8 77 12 53.6
08:25 1019 30.09 848 25.04 16.3 61.3 75 11.8 53.2
08:30 1019 30.09 848 25.04 16.6 61.9 75 12.2 54
08:35 1019 30.09 848 25.04 17.3 63.1 71 12.1 53.8
08:40 1019 30.09 848 25.04 17.3 63.1 74 12.8 55
08:45 1019 30.09 848 25.04 18 64.4 71 12.8 55
08:50 1019 30.09 848 25.04 18 64.3 68 12.1 53.8
08:55 1019 30.09 848 25.04 18 64.4 69 12.4 54.3
09:00 1019 30.09 848 25.04 18.6 65.4 65 12 53.6
09:05 1019 30.09 848 25.04 18.6 65.5 65 11.9 53.5
09:10 1019 30.09 848 25.04 18.8 65.8 64 11.9 53.4
09:15 1019 30.09 848 25.04 19.1 66.3 61 11.5 52.7
09:20 1019 30.09 848 25.04 19.2 66.5 64 12.2 54
09:25 1019 30.09 848 25.04 19.8 67.7 62 12.4 54.3
09:30 1019 30.09 848 25.04 20.5 68.9 60 12.4 54.4
09:35 1019 30.09 848 25.04 20.4 68.7 59 12.1 53.8
09:40 1019 30.09 848 25.04 20.7 69.3 58 12.4 54.3
09:45 1019 30.09 848 25.04 21.2 70.1 54 11.6 52.8
09:50 1019 30.09 848 25.04 21.9 71.4 52 11.7 53
09:55 1019 30.09 848 25.04 22.7 72.9 49 11.7 53.1
10:00 1019 30.09 848 25.04 23.1 73.6 48 11.8 53.3
10:05 1019 30.09 848 25.04 23 73.4 48 11.7 53
10:10 1019 30.09 848 25.04 22.7 72.9 50 12 53.7
10:15 1019 30.09 848 25.04 23.3 74 47 11.5 52.8
10:20 1019 30.09 848 25.04 23.9 74.9 46 11.7 53
10:25 1019 30.09 848 25.04 24.4 75.8 46 12 53.7
10:30 1018 30.06 848 25.04 24.4 76 45 11.8 53.2
10:35 1018 30.06 848 25.04 24.1 75.5 46 12.1 53.8
10:40 1018 30.06 848 25.04 23.7 74.7 45 11.4 52.4
10:45 1018 30.06 848 25.04 24.3 75.8 44 11.4 52.4
10:50 1018 30.06 848 25.04 25.2 77.3 45 12.5 54.5
10:55 1018 30.06 848 25.04 24 75.2 48 12.3 54.2
11:00 1018 30.06 848 25.04 24.5 76 43 11.1 52
11:05 1018 30.06 848 25.04 25.2 77.4 42 11.8 53.2
11:10 1018 30.06 848 25.04 25 77 43 11.9 53.5
11:15 1018 30.06 848 25.04 24.2 75.6 46 11.9 53.5
11:20 1018 30.06 848 25.04 24.5 76 45 12 53.7
11:25 1018 30.06 848 25.04 24.7 76.4 44 11.7 53.1
11:30 1018 30.06 848 25.04 25 77 45 12.5 54.5
11:35 1018 30.06 848 25.04 25.8 78.4 42 12.2 54
11:40 1018 30.06 848 25.04 26.6 79.8 42 12.7 54.8
11:45 1018 30.06 848 25.04 26.3 79.3 42 12.6 54.7
11:50 1018 30.06 848 25.04 26.1 79 44 13.1 55.6
11:55 1018 30.06 848 25.04 25.7 78.2 46 13.5 56.4
12:00 1018 30.06 848 25.04 25.5 77.9 47 13.6 56.6
12:05 1018 30.06 848 25.04 25 77.1 48 13.6 56.4
12:10 1018 30.06 848 25.04 25.5 78 45 13.1 55.5
12:15 1018 30.06 848 25.04 25.9 78.6 45 13.2 55.7
12:20 1018 30.06 848 25.04 25.5 77.8 45 12.8 55.1
12:25 1018 30.06 847 25.01 25.6 78.1 47 13.5 56.4
12:30 1018 30.06 847 25.01 25.9 78.6 44 12.9 55.3
12:35 1018 30.06 847 25.01 26.7 80.1 40 12.4 54.3
12:40 1018 30.06 847 25.01 26.8 80.3 42 13 55.4
12:45 1018 30.06 847 25.01 27.1 80.7 42 13.4 56.1
12:50 1018 30.06 847 25.01 27.4 81.4 42 13.6 56.5
12:55 1018 30.06 847 25.01 27.2 80.9 42 13.3 55.9
13:00 1018 30.06 847 25.01 27.2 81 42 13.3 55.9
13:05 1018 30.06 847 25.01 27.7 81.8 41 13.7 56.6
13:10 1018 30.06 847 25.01 27.6 81.7 38 12.2 54
13:15 1018 30.06 847 25.01 27.9 82.3 36 11.9 53.4
13:20 1018 30.06 847 25.01 28.2 82.7 36 11.9 53.5
13:25 1018 30.06 847 25.01 28.3 82.9 34 11.1 52
13:30 1018 30.06 847 25.01 28 82.4 36 11.7 53
13:35 1018 30.06 847 25.01 28 82.5 36 12 53.6
13:40 1018 30.06 847 25.01 28.1 82.5 35 11.6 52.8
13:45 1018 30.06 847 25.01 27.7 81.8 36 11.6 52.8
13:50 1017 30.03 847 25.01 27.4 81.4 36 11.4 52.5
13:55 1017 30.03 847 25.01 27.5 81.5 36 11.6 52.8
14:00 1017 30.03 847 25.01 27.1 80.8 36 11 51.8
14:05 1017 30.03 847 25.01 27.2 80.9 34 10.2 50.4
14:10 1017 30.03 847 25.01 28.1 82.5 32 10.2 50.3
14:15 1017 30.03 846 24.98 28.9 84 30 9.9 49.7
14:20 1017 30.03 846 24.98 29.3 84.7 29 9.5 49.1
14:25 1017 30.03 846 24.98 29.1 84.4 30 10 50
14:30 1017 30.03 846 24.98 28.9 84.1 30 9.8 49.6
14:35 1017 30.03 846 24.98 28.5 83.3 29 9.1 48.4
14:40 1017 30.03 846 24.98 28.7 83.7 31 10.1 50.3
14:45 1017 30.03 846 24.98 28.2 82.8 29 8.9 48
14:50 1017 30.03 846 24.98 28.4 83.1 30 9.3 48.8
14:55 1017 30.03 846 24.98 28 82.4 30 9.3 48.8
15:00 1017 30.03 846 24.98 27.6 81.6 31 9.1 48.4
15:05 1017 30.03 846 24.98 27.6 81.8 30 8.8 47.9
15:10 1017 30.03 846 24.98 27.2 81 31 8.8 47.9
15:15 1017 30.03 846 24.98 27.3 81.2 31 8.8 47.8
15:20 1017 30.03 846 24.98 26.9 80.5 39 12.2 53.9
15:25 1017 30.03 846 24.98 26.6 79.8 38 11.3 52.4
15:30 1017 30.03 846 24.98 26.6 79.8 38 11.4 52.6
15:35 1017 30.03 846 24.98 26.4 79.4 40 11.9 53.5
15:40 1017 30.03 846 24.98 26.1 78.9 38 10.7 51.3
15:45 1017 30.03 846 24.98 26 78.8 40 11.6 52.9
15:50 1017 30.03 846 24.98 25.9 78.6 41 11.7 53.1
15:55 1017 30.03 846 24.98 25.9 78.6 42 12.1 53.7
16:00 1017 30.03 846 24.98 25.5 77.8 42 11.7 53
16:05 1017 30.03 846 24.98 24.6 76.3 48 13.2 55.8
16:10 1017 30.03 846 24.98 23.6 74.5 51 13 55.4
16:15 1017 30.03 847 25.01 22.9 73.2 60 14.9 58.8
16:20 1018 30.06 847 25.01 21.9 71.4 65 15.1 59.1
16:25 1018 30.06 847 25.01 20.2 68.3 67 13.9 57.1
16:30 1018 30.06 847 25.01 17.8 64 79 14.1 57.4
16:35 1019 30.09 848 25.04 16.6 61.9 78 12.8 55.1
16:40 1019 30.09 848 25.04 16.5 61.7 81 13.2 55.8
16:45 1020 30.12 849 25.07 16.5 61.6 82 13.4 56.2
16:50 1020 30.12 849 25.07 16.1 61 85 13.6 56.5
16:55 1020 30.12 850 25.1 15.9 60.7 85 13.4 56.1
17:00 1021 30.15 850 25.1 15.9 60.7 84 13.3 55.9
17:05 1021 30.15 850 25.1 15.8 60.5 85 13.3 56
17:10 1021 30.15 850 25.1 15.9 60.5 84 13.2 55.8
17:15 1021 30.15 850 25.1 15.9 60.6 84 13.2 55.8
17:20 1021 30.15 851 25.13 15.8 60.4 88 13.7 56.7
17:25 1021 30.15 851 25.13 15.5 60 87 13.4 56.1
17:30 1022 30.18 851 25.13 15.4 59.8 87 13.3 56
17:35 1022 30.18 851 25.13 15.4 59.7 87 13.3 55.9
17:40 1022 30.18 851 25.13 15.4 59.6 88 13.3 56
17:45 1022 30.18 851 25.13 15.3 59.5 88 13.2 55.8
17:50 1022 30.18 851 25.13 15.2 59.4 89 13.4 56.2
17:55 1022 30.18 851 25.13 15.3 59.5 88 13.3 56
18:00 1021 30.15 851 25.13 15.3 59.6 89 13.6 56.4
18:05 1021 30.15 850 25.1 15.5 59.8 86 13.2 55.7
18:10 1021 30.15 850 25.1 15.6 60 92 14.3 57.7
18:15 1021 30.15 850 25.1 15.6 60 92 14.3 57.7
18:20 1021 30.15 850 25.1 15.5 59.8 94 14.4 58
18:25 1021 30.15 850 25.1 15.6 60 90 14 57.1
18:30 1021 30.15 850 25.1 15.5 60 94 14.6 58.3
18:35 1021 30.15 850 25.1 15.7 60.2 88 13.8 56.8
18:40 1020 30.12 850 25.1 15.6 60.1 90 14 57.2
18:45 1020 30.12 849 25.07 15.6 60 88 13.6 56.4
18:50 1020 30.12 849 25.07 15.6 60 92 14.3 57.8
18:55 1020 30.12 849 25.07 15.6 60 92 14.2 57.6
19:00 1019 30.09 849 25.07 15.6 60 92 14.3 57.8
19:05 1019 30.09 848 25.04 15.6 60.1 91 14.2 57.6
19:10 1019 30.09 848 25.04 15.8 60.4 89 14.1 57.3
19:15 1019 30.09 848 25.04 16 60.8 89 14.2 57.6
19:20 1019 30.09 848 25.04 16.2 61.2 88 14.2 57.6
19:25 1019 30.09 848 25.04 16.5 61.7 87 14.4 57.8
19:30 1019 30.09 848 25.04 16.9 62.4 87 14.7 58.5
19:35 1019 30.09 848 25.04 17.1 62.7 87 14.9 58.8
19:40 1019 30.09 848 25.04 17.2 62.9 85 14.7 58.4
19:45 1019 30.09 848 25.04 16.9 62.5 85 14.3 57.8
19:50 1019 30.09 848 25.04 16.6 61.9 85 14.1 57.3
19:55 1019 30.09 848 25.04 16.4 61.6 85 14 57.2
20:00 1019 30.09 848 25.04 16.4 61.4 85 13.9 57.1
20:05 1019 30.09 848 25.04 16.3 61.3 86 14 57.1
20:10 1019 30.09 848 25.04 16.3 61.4 85 13.9 57
20:15 1019 30.09 848 25.04 16.2 61.2 85 13.8 56.8
20:20 1018 30.06 848 25.04 16.1 61.1 85 13.6 56.5
20:25 1018 30.06 848 25.04 16.1 61 86 13.7 56.7
20:30 1018 30.06 848 25.04 16 60.9 85 13.6 56.4
20:35 1018 30.06 848 25.04 16 60.8 86 13.6 56.5
20:40 1018 30.06 848 25.04 15.9 60.6 86 13.5 56.3
20:45 1019 30.09 848 25.04 15.9 60.6 86 13.6 56.4
20:50 1019 30.09 848 25.04 15.9 60.6 86 13.5 56.3
20:55 1019 30.09 848 25.04 15.9 60.7 85 13.4 56.2
21:00 1019 30.09 848 25.04 15.9 60.6 85 13.3 56
21:05 1019 30.09 848 25.04 15.9 60.6 84 13.3 56
21:10 1019 30.09 848 25.04 15.9 60.5 85 13.3 56
21:15 1019 30.09 848 25.04 15.9 60.6 84 13.2 55.7
21:20 1019 30.09 848 25.04 16 60.7 83 13.1 55.7
21:25 1019 30.09 848 25.04 15.9 60.6 84 13.3 55.9
21:30 1019 30.09 848 25.04 15.9 60.5 84 13.1 55.7
21:35 1019 30.09 848 25.04 15.8 60.4 85 13.2 55.8
21:40 1019 30.09 848 25.04 15.7 60.3 84 13.1 55.6
21:45 1019 30.09 848 25.04 15.7 60.3 86 13.4 56
21:50 1019 30.09 849 25.07 15.7 60.3 86 13.4 56.1
21:55 1019 30.09 849 25.07 15.7 60.2 86 13.4 56.2
22:00 1019 30.09 849 25.07 15.6 60.1 89 13.8 56.8
22:05 1019 30.09 849 25.07 15.5 59.9 87 13.3 55.9
22:10 1019 30.09 849 25.07 15.4 59.7 87 13.3 55.9
22:15 1019 30.09 849 25.07 15.4 59.7 86 13.2 55.7
22:20 1019 30.09 849 25.07 15.4 59.8 89 13.7 56.6
22:25 1019 30.09 849 25.07 15.2 59.3 88 13.3 55.9
22:30 1019 30.09 848 25.04 15.1 59.2 88 13.1 55.6
22:35 1019 30.09 848 25.04 15 59 89 13.2 55.8
22:40 1019 30.09 848 25.04 14.8 58.7 89 13.1 55.6
22:45 1019 30.09 849 25.07 14.8 58.6 90 13.1 55.6
22:50 1019 30.09 848 25.04 14.6 58.3 90 13 55.5
22:55 1019 30.09 848 25.04 14.5 58 91 13 55.3
23:00 1019 30.09 848 25.04 14.4 57.9 90 12.8 55
23:05 1019 30.09 848 25.04 14.4 57.9 90 12.7 54.8
23:10 1019 30.09 848 25.04 14.4 57.9 89 12.6 54.6
23:15 1019 30.09 848 25.04 14.5 58 89 12.6 54.8
23:20 1019 30.09 848 25.04 14.4 57.8 89 12.6 54.6
23:25 1019 30.09 848 25.04 14.4 57.9 88 12.5 54.5
23:30 1019 30.09 848 25.04 14.5 58 88 12.5 54.5
23:35 1019 30.09 848 25.04 14.4 57.8 89 12.5 54.5
23:40 1019 30.09 848 25.04 14.5 58 88 12.4 54.4
23:45 1019 30.09 848 25.04 14.4 58 88 12.4 54.4
23:50 1019 30.09 848 25.04 14.4 57.9 87 12.3 54.2
23:55 1019 30.09 848 25.04 14.5 58.2 87 12.3 54.2
24:00 1018 30.06 848 25.04 14.5 58.2 87 12.4 54.3